createdAt,value
2018-06-24T00:05:42.745Z,99.90
2018-06-24T00:11:31.090Z,99.90
2018-06-24T00:42:09.534Z,99.90
2018-06-24T01:40:02.502Z,99.90
2018-06-24T02:08:04.665Z,99.90
2018-06-24T02:18:37.145Z,99.90
2018-06-24T02:30:55.589Z,99.90
2018-06-24T02:33:28.107Z,99.90
2018-06-24T02:36:22.574Z,99.90
2018-06-24T03:08:06.618Z,99.90
2018-06-24T03:31:45.080Z,99.90
2018-06-24T03:39:15.727Z,99.90
2018-06-24T03:41:50.167Z,99.90
2018-06-24T03:44:18.747Z,99.90
2018-06-24T03:46:46.655Z,99.90
2018-06-24T03:49:18.735Z,99.90
2018-06-24T03:51:46.351Z,99.90
2018-06-24T03:54:14.958Z,99.90
2018-06-24T03:56:42.395Z,99.40
2018-06-24T03:59:09.820Z,98.20
2018-06-24T04:01:37.321Z,96.10
2018-06-24T04:06:44.870Z,96.00
2018-06-24T04:09:30.004Z,98.40
2018-06-24T04:12:12.628Z,99.70
2018-06-24T04:14:43.093Z,98.70
2018-06-24T04:17:11.414Z,98.50
2018-06-24T04:19:40.056Z,98.80
2018-06-24T04:24:35.281Z,98.10
2018-06-24T04:27:02.749Z,95.20
2018-06-24T04:29:30.185Z,93.20
2018-06-24T04:31:57.597Z,90.60
2018-06-24T04:34:25.086Z,87.50
2018-06-24T04:36:52.496Z,84.50
2018-06-24T04:39:19.913Z,85.30
2018-06-24T04:41:47.309Z,81.90
2018-06-24T04:44:14.721Z,79.80
2018-06-24T04:46:42.121Z,83.20
2018-06-24T04:49:09.537Z,89.00
2018-06-24T04:51:36.978Z,91.30
2018-06-24T04:54:04.446Z,92.50
2018-06-24T04:56:31.880Z,92.40
2018-06-24T04:58:59.303Z,91.40
2018-06-24T05:01:26.695Z,87.10
2018-06-24T05:03:54.122Z,81.20
2018-06-24T05:06:21.558Z,77.70
2018-06-24T05:08:48.980Z,74.70
2018-06-24T05:14:19.106Z,80.20
2018-06-24T05:16:46.545Z,84.10
2018-06-24T05:19:14.010Z,83.70
2018-06-24T05:21:41.401Z,84.50
2018-06-24T05:24:16.077Z,85.40
2018-06-24T05:26:43.462Z,87.20
2018-06-24T05:29:11.437Z,85.70
2018-06-24T05:31:38.865Z,88.30
2018-06-24T05:34:06.474Z,89.80
2018-06-24T05:36:33.934Z,89.30
2018-06-24T05:39:01.325Z,90.10
2018-06-24T05:41:28.787Z,90.00
2018-06-24T05:43:56.229Z,89.10
2018-06-24T05:46:23.648Z,89.10
2018-06-24T05:48:51.091Z,88.50
2018-06-24T05:51:18.581Z,87.70
2018-06-24T05:53:46.022Z,89.40
2018-06-24T05:56:13.437Z,90.80
2018-06-24T06:01:08.266Z,91.10
2018-06-24T06:06:11.557Z,92.10
2018-06-24T06:32:19.119Z,96.90
2018-06-24T07:01:33.423Z,98.40
2018-06-24T07:04:00.856Z,96.60
2018-06-24T07:06:28.318Z,96.70
2018-06-24T07:08:55.757Z,97.30
2018-06-24T07:11:23.184Z,96.20
2018-06-24T07:13:50.645Z,96.70
2018-06-24T07:16:18.076Z,98.00
2018-06-24T07:21:12.907Z,99.20
2018-06-24T07:26:07.748Z,98.30
2018-06-24T07:28:35.152Z,98.80
2018-06-24T07:31:02.609Z,99.80
2018-06-24T07:33:30.141Z,97.80
2018-06-24T07:38:24.892Z,95.20
2018-06-24T07:40:52.328Z,94.20
2018-06-24T07:43:19.715Z,92.80
2018-06-24T07:45:47.206Z,92.40
2018-06-24T07:48:14.593Z,92.30
2018-06-24T07:53:09.401Z,93.40
2018-06-24T07:55:36.834Z,92.70
2018-06-24T07:58:04.291Z,93.00
2018-06-24T08:00:31.994Z,94.10
2018-06-24T08:02:59.402Z,95.10
2018-06-24T08:05:26.788Z,94.50
2018-06-24T08:07:54.255Z,95.20
2018-06-24T08:10:21.669Z,94.10
2018-06-24T08:12:49.086Z,93.60
2018-06-24T08:15:16.532Z,95.00
2018-06-24T08:17:43.954Z,94.90
2018-06-24T08:20:11.386Z,95.30
2018-06-24T08:22:38.836Z,95.80
2018-06-24T08:25:06.270Z,94.10
2018-06-24T08:27:33.689Z,93.20
2018-06-24T08:30:01.112Z,93.70
2018-06-24T08:32:28.574Z,92.10
2018-06-24T08:34:56.021Z,92.40
2018-06-24T08:37:23.468Z,93.80
2018-06-24T08:39:50.929Z,91.50
2018-06-24T08:42:18.332Z,91.80
2018-06-24T08:44:45.757Z,91.70
2018-06-24T08:47:13.209Z,90.90
2018-06-24T08:49:40.570Z,91.70
2018-06-24T08:52:08.021Z,90.80
2018-06-24T08:54:35.413Z,91.20
2018-06-24T08:57:02.838Z,89.60
2018-06-24T08:59:30.229Z,90.70
2018-06-24T09:01:57.652Z,86.10
2018-06-24T09:04:25.056Z,87.60
2018-06-24T09:06:52.458Z,85.80
2018-06-24T09:09:19.886Z,81.00
2018-06-24T09:11:47.279Z,83.90
2018-06-24T09:14:14.741Z,79.00
2018-06-24T09:16:42.145Z,80.50
2018-06-24T09:19:09.574Z,83.10
2018-06-24T09:21:37.009Z,79.20
2018-06-24T09:24:04.464Z,77.70
2018-06-24T09:26:31.882Z,76.70
2018-06-24T09:28:59.413Z,73.70
2018-06-24T09:31:26.839Z,76.20
2018-06-24T09:33:54.297Z,78.50
2018-06-24T09:36:21.719Z,77.30
2018-06-24T09:38:49.108Z,78.40
2018-06-24T09:41:16.568Z,80.90
2018-06-24T09:43:43.983Z,79.20
2018-06-24T09:46:11.430Z,81.50
2018-06-24T09:48:38.829Z,77.90
2018-06-24T09:51:06.302Z,78.60
2018-06-24T09:53:33.763Z,80.60
2018-06-24T09:56:01.184Z,77.30
2018-06-24T09:58:28.599Z,77.90
2018-06-24T10:00:55.999Z,78.80
2018-06-24T10:03:23.472Z,75.50
2018-06-24T10:05:50.909Z,74.30
2018-06-24T10:10:45.725Z,73.10
2018-06-24T10:13:13.165Z,71.90
2018-06-24T10:15:40.597Z,71.80
2018-06-24T10:18:08.090Z,74.40
2018-06-24T10:20:35.515Z,73.80
2018-06-24T10:23:02.951Z,73.80
2018-06-24T10:25:30.373Z,72.80
2018-06-24T10:30:25.213Z,73.30
2018-06-24T10:32:52.629Z,74.00
2018-06-24T10:35:20.035Z,71.70
2018-06-24T10:40:14.829Z,68.50
2018-06-24T10:42:42.252Z,67.10
2018-06-24T10:45:09.676Z,73.50
2018-06-24T10:47:37.083Z,71.50
2018-06-24T10:50:04.546Z,73.70
2018-06-24T10:52:31.961Z,73.40
2018-06-24T10:54:59.372Z,72.70
2018-06-24T10:57:26.794Z,71.30
2018-06-24T10:59:54.215Z,71.80
2018-06-24T11:02:21.638Z,68.30
2018-06-24T11:04:49.077Z,67.50
2018-06-24T11:07:16.461Z,71.00
2018-06-24T11:09:43.919Z,68.40
2018-06-24T11:12:11.341Z,67.30
2018-06-24T11:14:38.754Z,61.30
2018-06-24T11:17:06.177Z,67.10
2018-06-24T11:19:33.628Z,65.00
2018-06-24T11:24:28.453Z,63.60
2018-06-24T11:26:55.862Z,64.10
2018-06-24T11:29:23.315Z,65.50
2018-06-24T11:31:50.813Z,65.30
2018-06-24T11:34:18.195Z,63.00
2018-06-24T11:36:45.641Z,63.10
2018-06-24T11:39:13.076Z,61.50
2018-06-24T11:41:40.505Z,62.10
2018-06-24T11:44:07.960Z,61.80
2018-06-24T11:46:35.377Z,57.60
2018-06-24T11:49:02.798Z,64.80
2018-06-24T11:51:30.258Z,59.10
2018-06-24T11:53:57.684Z,59.00
2018-06-24T11:56:25.073Z,60.10
2018-06-24T11:58:52.480Z,61.10
2018-06-24T12:01:19.908Z,57.40
2018-06-24T12:03:47.345Z,60.00
2018-06-24T12:06:14.772Z,62.40
2018-06-24T12:08:42.223Z,60.20
2018-06-24T12:11:09.705Z,62.10
2018-06-24T12:13:37.171Z,61.20
2018-06-24T12:16:04.844Z,63.90
2018-06-24T12:18:32.661Z,63.40
2018-06-24T12:21:00.091Z,63.70
2018-06-24T12:23:27.545Z,61.90
2018-06-24T12:25:54.996Z,56.60
2018-06-24T12:28:22.445Z,60.70
2018-06-24T12:30:49.919Z,61.40
2018-06-24T12:33:17.329Z,60.70
2018-06-24T12:35:44.801Z,64.00
2018-06-24T12:38:12.234Z,62.00
2018-06-24T12:40:39.669Z,58.80
2018-06-24T12:43:07.107Z,63.50
2018-06-24T12:45:34.576Z,63.40
2018-06-24T12:48:02.012Z,59.20
2018-06-24T12:50:29.465Z,60.80
2018-06-24T12:52:57.408Z,58.40
2018-06-24T12:55:24.978Z,60.10
2018-06-24T13:15:48.459Z,62.80
2018-06-24T14:14:43.680Z,57.40
2018-06-24T15:39:56.733Z,73.80
2018-06-24T15:56:42.063Z,77.30
2018-06-24T16:10:43.461Z,79.10
2018-06-24T16:13:11.310Z,80.30
2018-06-24T16:18:16.182Z,89.00
2018-06-24T16:20:44.038Z,93.70
2018-06-24T16:23:11.325Z,99.50
2018-06-24T16:28:07.079Z,99.90
2018-06-24T16:30:34.599Z,99.90
2018-06-24T16:33:02.099Z,99.90
2018-06-24T16:39:07.309Z,99.90
2018-06-24T16:41:35.217Z,99.90
2018-06-24T16:44:04.380Z,99.90
2018-06-24T16:46:51.690Z,99.90
2018-06-24T16:56:01.046Z,99.90
2018-06-24T16:58:28.864Z,99.90
2018-06-24T17:01:11.927Z,99.90
2018-06-24T17:03:40.742Z,99.90
2018-06-24T17:06:11.177Z,99.90
2018-06-24T17:08:38.859Z,99.90
2018-06-24T17:11:06.623Z,99.90
2018-06-24T17:19:23.281Z,99.90
2018-06-24T17:21:50.870Z,99.90
2018-06-24T17:24:18.320Z,99.90
2018-06-24T17:26:45.776Z,99.90
2018-06-24T17:29:13.512Z,99.90
2018-06-24T17:36:40.360Z,99.90
2018-06-24T17:39:14.842Z,99.90
2018-06-24T17:41:45.001Z,99.90
2018-06-24T17:44:34.247Z,99.90
2018-06-24T17:51:14.853Z,99.90
2018-06-24T17:53:42.385Z,99.90
2018-06-24T17:56:11.889Z,99.90
2018-06-24T17:58:49.841Z,99.90
2018-06-24T18:01:17.504Z,99.90
2018-06-24T18:03:44.938Z,99.90
2018-06-24T18:09:05.170Z,99.90
2018-06-24T18:11:32.600Z,99.90
2018-06-24T18:19:51.712Z,99.90
2018-06-24T18:22:20.331Z,99.90
2018-06-24T18:24:48.505Z,99.90
2018-06-24T18:27:21.529Z,99.90
2018-06-24T18:29:52.006Z,99.90
2018-06-24T18:35:12.376Z,99.90
2018-06-24T18:37:43.965Z,99.90
2018-06-24T18:40:15.602Z,99.90
2018-06-24T18:42:44.286Z,99.90
2018-06-24T18:47:43.991Z,99.90
2018-06-24T18:50:12.584Z,99.90
2018-06-24T18:52:41.989Z,99.90
2018-06-24T18:55:11.922Z,99.90
2018-06-24T18:57:40.927Z,99.90
2018-06-24T19:00:12.178Z,99.90
2018-06-24T19:02:51.531Z,99.90
2018-06-24T19:07:27.957Z,99.90
2018-06-24T19:09:57.946Z,99.90
2018-06-24T19:13:04.155Z,99.90
2018-06-24T19:15:32.966Z,99.90
2018-06-24T19:18:08.939Z,99.90
2018-06-24T19:21:48.074Z,99.90
2018-06-24T19:24:25.968Z,99.90
2018-06-24T19:26:54.042Z,99.90
2018-06-24T19:29:22.194Z,99.90
2018-06-24T19:31:57.548Z,99.90
2018-06-24T19:34:33.231Z,99.90
2018-06-24T19:37:13.104Z,99.90
2018-06-24T19:43:11.528Z,99.90
2018-06-24T19:50:32.003Z,99.90
2018-06-24T19:56:45.466Z,99.90
2018-06-24T19:59:15.602Z,99.90
2018-06-24T20:01:44.322Z,99.90
2018-06-24T20:04:14.305Z,99.90
2018-06-24T20:06:45.100Z,99.90
2018-06-24T20:12:23.220Z,99.90
2018-06-24T20:15:42.763Z,99.90
2018-06-24T20:18:21.832Z,99.90
2018-06-24T20:24:02.139Z,99.90
2018-06-24T20:26:53.897Z,99.90
2018-06-24T20:29:21.425Z,99.90
2018-06-24T20:31:48.909Z,99.90
2018-06-24T20:34:16.714Z,99.90
2018-06-24T20:36:44.380Z,99.90
2018-06-24T20:39:13.133Z,99.90
2018-06-24T20:41:40.836Z,99.90
2018-06-24T20:44:08.337Z,99.90
2018-06-24T20:46:35.970Z,99.90
2018-06-24T20:49:03.414Z,99.90
2018-06-24T20:51:30.861Z,99.90
2018-06-24T20:53:58.292Z,99.90
2018-06-24T20:56:25.705Z,99.90
2018-06-24T20:59:04.569Z,99.90
2018-06-24T21:01:32.409Z,99.90
2018-06-24T21:12:18.854Z,99.90
2018-06-24T21:15:06.423Z,99.90
2018-06-24T21:28:55.815Z,99.90
2018-06-24T21:42:13.896Z,99.90
2018-06-24T21:47:47.711Z,99.90
2018-06-24T21:50:15.154Z,99.90
2018-06-24T21:52:42.650Z,99.90
2018-06-24T21:57:37.508Z,99.90
2018-06-24T22:00:07.154Z,99.90
2018-06-24T22:02:34.589Z,99.90
2018-06-24T22:05:01.989Z,99.90
2018-06-24T22:07:29.431Z,99.90
2018-06-24T22:09:56.815Z,99.90
2018-06-24T22:12:24.227Z,99.90
2018-06-24T22:14:51.708Z,99.90
2018-06-24T22:17:19.338Z,99.90
2018-06-24T22:19:47.945Z,99.90
2018-06-24T22:33:10.710Z,99.90
2018-06-24T22:52:54.623Z,99.90
2018-06-24T22:55:22.969Z,99.90
2018-06-24T22:59:39.936Z,99.90
2018-06-24T23:07:37.115Z,99.90
2018-06-24T23:10:08.414Z,99.90
2018-06-24T23:17:11.792Z,99.90
2018-06-24T23:20:05.561Z,99.90
2018-06-24T23:22:55.304Z,99.90
2018-06-24T23:35:05.976Z,99.90
2018-06-24T23:37:51.579Z,99.90
2018-06-24T23:40:22.853Z,99.90
2018-06-24T23:43:08.659Z,99.90
2018-06-24T23:45:50.288Z,99.90
2018-06-24T23:51:39.389Z,99.90
2018-06-24T23:54:13.784Z,99.90
2018-06-24T23:56:47.678Z,99.90
2018-06-24T23:59:38.166Z,99.90
